createdAt,value
2023-03-08T00:02:17.828Z,24.23
2023-03-08T00:04:45.493Z,23.02
2023-03-08T00:07:13.219Z,22.60
2023-03-08T00:09:42.220Z,24.30
2023-03-08T00:12:10.633Z,26.08
2023-03-08T00:14:38.568Z,20.25
2023-03-08T00:17:06.976Z,24.90
2023-03-08T00:19:34.648Z,21.23
2023-03-08T00:22:04.735Z,20.67
2023-03-08T00:24:32.592Z,20.95
2023-03-08T00:27:01.849Z,20.20
2023-03-08T00:29:29.538Z,21.73
2023-03-08T00:31:57.237Z,20.80
2023-03-08T00:34:24.860Z,18.92
2023-03-08T00:36:52.505Z,21.63
2023-03-08T00:39:20.319Z,19.38
2023-03-08T00:41:47.965Z,22.15
2023-03-08T00:44:16.974Z,19.95
2023-03-08T00:46:46.846Z,20.73
2023-03-08T00:49:17.218Z,21.25
2023-03-08T00:51:44.820Z,20.17
2023-03-08T00:54:12.449Z,19.67
2023-03-08T00:56:40.118Z,17.83
2023-03-08T00:59:09.543Z,22.40
2023-03-08T01:01:38.578Z,19.65
2023-03-08T01:04:06.479Z,19.77
2023-03-08T01:06:34.146Z,17.73
2023-03-08T01:09:01.926Z,19.55
2023-03-08T01:11:29.614Z,20.20
2023-03-08T01:13:57.386Z,20.05
2023-03-08T01:16:27.013Z,26.30
2023-03-08T01:18:56.961Z,18.90
2023-03-08T01:21:25.694Z,19.40
2023-03-08T01:23:54.336Z,20.30
2023-03-08T01:26:24.550Z,17.20
2023-03-08T01:28:53.151Z,18.10
2023-03-08T01:31:22.655Z,16.60
2023-03-08T01:33:51.060Z,17.50
2023-03-08T01:36:22.337Z,19.10
2023-03-08T01:38:50.458Z,21.02
2023-03-08T01:41:20.061Z,19.65
2023-03-08T01:43:47.990Z,21.10
2023-03-08T01:46:26.142Z,19.83
2023-03-08T01:49:14.573Z,19.58
2023-03-08T01:51:47.477Z,21.05
2023-03-08T01:54:18.488Z,18.58
2023-03-08T01:56:51.828Z,21.02
2023-03-08T01:59:23.505Z,18.88
2023-03-08T02:01:53.162Z,20.98
2023-03-08T02:04:21.569Z,17.75
2023-03-08T02:06:50.627Z,18.33
2023-03-08T02:09:22.036Z,19.20
2023-03-08T02:11:50.547Z,20.13
2023-03-08T02:14:18.222Z,17.60
2023-03-08T02:16:45.981Z,20.17
2023-03-08T02:19:18.255Z,23.10
2023-03-08T02:21:45.901Z,20.63
2023-03-08T02:24:23.319Z,21.17
2023-03-08T02:26:53.640Z,22.10
2023-03-08T02:29:21.423Z,22.42
2023-03-08T02:31:49.063Z,21.08
2023-03-08T02:34:16.715Z,23.00
2023-03-08T02:36:44.876Z,21.02
2023-03-08T02:39:15.479Z,22.08
2023-03-08T02:41:44.490Z,21.08
2023-03-08T02:44:12.184Z,22.30
2023-03-08T02:46:42.276Z,21.55
2023-03-08T02:49:09.948Z,19.73
2023-03-08T02:51:39.700Z,22.73
2023-03-08T02:54:10.967Z,23.10
2023-03-08T02:56:38.671Z,20.42
2023-03-08T02:59:08.190Z,20.77
2023-03-08T03:01:36.452Z,21.77
2023-03-08T03:04:07.847Z,21.73
2023-03-08T03:06:35.522Z,21.17
2023-03-08T03:09:07.239Z,24.00
2023-03-08T03:11:34.879Z,21.50
2023-03-08T03:14:03.305Z,19.25
2023-03-08T03:16:35.049Z,21.80
2023-03-08T03:19:02.662Z,21.73
2023-03-08T03:21:30.306Z,23.85
2023-03-08T03:23:58.052Z,22.60
2023-03-08T03:26:26.206Z,23.00
2023-03-08T03:28:57.324Z,20.73
2023-03-08T03:31:25.620Z,21.02
2023-03-08T03:33:54.709Z,21.35
2023-03-08T03:36:23.090Z,23.20
2023-03-08T03:38:51.325Z,19.40
2023-03-08T03:41:22.090Z,19.05
2023-03-08T03:43:50.567Z,21.27
2023-03-08T03:46:21.591Z,18.88
2023-03-08T03:48:49.493Z,23.17
2023-03-08T03:51:20.419Z,21.00
2023-03-08T03:53:51.756Z,28.27
2023-03-08T03:56:21.577Z,24.63
2023-03-08T03:58:50.289Z,22.67
2023-03-08T04:01:21.137Z,18.27
2023-03-08T04:03:49.217Z,19.73
2023-03-08T04:06:20.655Z,23.52
2023-03-08T04:08:52.550Z,22.10
2023-03-08T04:11:22.806Z,23.65
2023-03-08T04:13:50.850Z,19.38
2023-03-08T04:16:20.131Z,22.20
2023-03-08T04:18:48.287Z,24.50
2023-03-08T04:21:16.095Z,25.25
2023-03-08T04:23:45.041Z,23.38
2023-03-08T04:26:13.610Z,27.58
2023-03-08T04:28:41.554Z,25.30
2023-03-08T04:31:14.143Z,29.23
2023-03-08T04:33:48.243Z,21.38
2023-03-08T04:36:16.759Z,25.20
2023-03-08T04:38:47.087Z,25.08
2023-03-08T04:41:15.644Z,20.40
2023-03-08T04:43:46.768Z,21.25
2023-03-08T04:46:15.277Z,19.88
2023-03-08T04:48:43.099Z,18.05
2023-03-08T04:51:14.029Z,27.00
2023-03-08T04:53:44.566Z,19.20
2023-03-08T04:56:15.322Z,21.10
2023-03-08T04:58:44.712Z,22.17
2023-03-08T05:01:14.157Z,21.05
2023-03-08T05:03:42.525Z,23.38
2023-03-08T05:06:10.842Z,22.08
2023-03-08T05:08:38.550Z,21.67
2023-03-08T05:11:06.918Z,20.65
2023-03-08T05:13:40.035Z,23.95
2023-03-08T05:16:08.904Z,24.30
2023-03-08T05:18:37.005Z,21.88
2023-03-08T05:21:07.501Z,23.98
2023-03-08T05:23:35.832Z,24.60
2023-03-08T05:26:05.521Z,19.90
2023-03-08T05:28:35.117Z,21.90
2023-03-08T05:31:06.325Z,24.38
2023-03-08T05:33:35.074Z,23.90
2023-03-08T05:36:03.494Z,25.38
2023-03-08T05:38:31.861Z,26.95
2023-03-08T05:41:01.929Z,25.83
2023-03-08T05:43:29.669Z,30.65
2023-03-08T05:45:58.414Z,19.60
2023-03-08T05:48:27.557Z,21.45
2023-03-08T05:50:55.554Z,21.17
2023-03-08T05:53:23.605Z,21.35
2023-03-08T05:55:52.859Z,23.20
2023-03-08T05:58:20.474Z,18.02
2023-03-08T06:00:48.121Z,22.33
2023-03-08T06:03:16.101Z,21.42
2023-03-08T06:05:45.117Z,23.73
2023-03-08T06:08:12.739Z,23.85
2023-03-08T06:10:40.359Z,22.13
2023-03-08T06:13:07.976Z,20.42
2023-03-08T06:15:35.628Z,23.25
2023-03-08T06:18:03.309Z,21.48
2023-03-08T06:20:33.211Z,27.75
2023-03-08T06:23:02.218Z,27.25
2023-03-08T06:25:29.927Z,26.92
2023-03-08T06:27:57.585Z,30.80
2023-03-08T06:30:25.348Z,27.75
2023-03-08T06:32:53.035Z,31.73
2023-03-08T06:35:22.334Z,27.95
2023-03-08T06:37:50.025Z,32.65
2023-03-08T06:40:20.803Z,27.50
2023-03-08T06:42:48.485Z,23.85
2023-03-08T06:45:18.867Z,29.75
2023-03-08T06:47:48.185Z,26.25
2023-03-08T06:50:16.179Z,30.60
2023-03-08T06:52:43.845Z,28.90
2023-03-08T06:55:12.680Z,31.95
2023-03-08T06:57:41.685Z,29.38
2023-03-08T07:00:12.286Z,26.13
2023-03-08T07:02:39.940Z,26.35
2023-03-08T07:05:08.219Z,32.05
2023-03-08T07:07:36.765Z,31.75
2023-03-08T07:10:05.278Z,29.13
2023-03-08T07:12:33.162Z,27.58
2023-03-08T07:15:02.174Z,25.98
2023-03-08T07:17:29.847Z,30.30
2023-03-08T07:19:57.510Z,24.55
2023-03-08T07:22:25.269Z,27.27
2023-03-08T07:24:52.948Z,32.40
2023-03-08T07:27:20.885Z,28.20
2023-03-08T07:29:48.555Z,27.88
2023-03-08T07:32:17.931Z,28.45
2023-03-08T07:34:46.138Z,25.52
2023-03-08T07:37:14.501Z,24.42
2023-03-08T07:39:42.568Z,29.35
2023-03-08T07:42:11.732Z,27.73
2023-03-08T07:44:39.359Z,28.35
2023-03-08T07:47:09.113Z,26.38
2023-03-08T07:49:38.116Z,27.95
2023-03-08T07:52:06.372Z,29.58
2023-03-08T07:54:34.204Z,29.63
2023-03-08T07:57:02.077Z,25.55
2023-03-08T07:59:30.191Z,24.25
2023-03-08T08:01:57.929Z,27.05
2023-03-08T08:04:25.663Z,23.55
2023-03-08T08:06:54.729Z,28.08
2023-03-08T08:09:22.409Z,27.58
2023-03-08T08:11:50.105Z,27.48
2023-03-08T08:14:17.757Z,30.88
2023-03-08T08:16:45.568Z,27.13
2023-03-08T08:19:14.635Z,28.80
2023-03-08T08:21:43.502Z,27.55
2023-03-08T08:24:12.601Z,26.20
2023-03-08T08:26:40.510Z,26.30
2023-03-08T08:29:08.856Z,24.73
2023-03-08T08:31:36.680Z,27.15
2023-03-08T08:34:04.490Z,27.48
2023-03-08T08:36:32.204Z,23.67
2023-03-08T08:38:59.925Z,21.75
2023-03-08T08:41:29.678Z,24.02
2023-03-08T08:43:59.439Z,24.20
2023-03-08T08:46:28.546Z,22.35
2023-03-08T08:48:56.942Z,24.02
2023-03-08T08:51:24.770Z,23.27
2023-03-08T08:53:52.614Z,23.65
2023-03-08T08:56:27.536Z,24.98
2023-03-08T09:01:27.011Z,25.83
2023-03-08T09:03:55.090Z,27.92
2023-03-08T09:06:24.067Z,26.25
2023-03-08T09:08:51.836Z,23.73
2023-03-08T09:11:19.806Z,26.33
2023-03-08T09:13:47.569Z,27.17
2023-03-08T09:16:21.811Z,21.85
2023-03-08T09:18:49.986Z,24.35
2023-03-08T09:21:18.148Z,23.73
2023-03-08T09:23:46.508Z,26.30
2023-03-08T09:26:14.480Z,25.67
2023-03-08T09:28:42.163Z,27.13
2023-03-08T09:31:12.926Z,27.05
2023-03-08T09:33:43.797Z,27.48
2023-03-08T09:36:11.915Z,25.90
2023-03-08T09:38:39.705Z,27.73
2023-03-08T09:41:31.998Z,26.70
2023-03-08T09:44:13.113Z,26.83
2023-03-08T09:46:47.172Z,28.27
2023-03-08T09:49:20.577Z,25.58
2023-03-08T09:51:54.003Z,25.75
2023-03-08T09:54:25.713Z,26.13
2023-03-08T09:56:56.296Z,25.85
2023-03-08T09:59:32.693Z,23.75
2023-03-08T10:02:05.690Z,26.98
2023-03-08T10:04:47.270Z,26.00
2023-03-08T10:07:26.017Z,27.77
2023-03-08T10:10:13.338Z,25.92
2023-03-08T10:12:56.919Z,25.00
2023-03-08T10:15:27.986Z,26.65
2023-03-08T10:18:00.593Z,22.35
2023-03-08T10:20:32.662Z,31.25
2023-03-08T10:23:02.638Z,31.50
2023-03-08T10:25:34.016Z,29.77
2023-03-08T10:28:03.084Z,27.08
2023-03-08T10:30:35.190Z,26.35
2023-03-08T10:33:08.539Z,25.60
2023-03-08T10:35:39.583Z,26.75
2023-03-08T10:38:17.243Z,21.17
2023-03-08T10:40:45.122Z,24.77
2023-03-08T10:43:20.560Z,29.70
2023-03-08T10:45:59.870Z,27.60
2023-03-08T10:48:27.566Z,28.35
2023-03-08T10:51:05.176Z,27.75
2023-03-08T10:53:33.689Z,24.17
2023-03-08T10:56:02.666Z,28.23
2023-03-08T10:58:35.056Z,25.20
2023-03-08T11:01:05.560Z,26.02
2023-03-08T11:03:33.885Z,25.92
2023-03-08T11:06:05.320Z,25.02
2023-03-08T11:08:38.933Z,29.35
2023-03-08T11:11:10.354Z,19.83
2023-03-08T11:13:41.767Z,24.45
2023-03-08T11:16:54.675Z,23.27
2023-03-08T11:19:36.195Z,23.58
2023-03-08T11:22:17.954Z,23.27
2023-03-08T11:24:56.891Z,24.92
2023-03-08T11:27:36.793Z,18.73
2023-03-08T11:30:18.212Z,20.40
2023-03-08T11:33:00.950Z,17.85
2023-03-08T11:35:36.104Z,18.20
2023-03-08T11:38:12.758Z,18.40
2023-03-08T11:40:53.154Z,19.15
2023-03-08T11:43:38.364Z,23.10
2023-03-08T11:46:17.041Z,19.80
2023-03-08T11:49:17.711Z,20.67
2023-03-08T11:51:53.931Z,16.90
2023-03-08T11:54:35.608Z,16.90
2023-03-08T11:57:05.416Z,18.23
2023-03-08T11:59:36.682Z,21.30
2023-03-08T12:02:16.270Z,18.05
2023-03-08T12:04:53.032Z,19.20
2023-03-08T12:07:25.800Z,18.27
2023-03-08T12:10:00.559Z,17.08
2023-03-08T12:12:32.088Z,14.67
2023-03-08T12:15:07.621Z,17.50
2023-03-08T12:20:14.097Z,15.40
2023-03-08T12:22:47.026Z,13.23
2023-03-08T12:25:26.242Z,12.43
2023-03-08T12:28:01.033Z,13.38
2023-03-08T12:30:40.116Z,9.43
2023-03-08T12:33:12.797Z,13.88
2023-03-08T12:35:53.263Z,12.00
2023-03-08T12:38:34.168Z,10.98
2023-03-08T12:41:04.251Z,11.55
2023-03-08T12:43:34.020Z,10.93
2023-03-08T12:46:05.506Z,11.57
2023-03-08T12:48:37.641Z,9.38
2023-03-08T12:51:20.125Z,9.52
2023-03-08T12:53:59.228Z,11.93
2023-03-08T12:56:32.150Z,12.60
2023-03-08T12:59:01.877Z,11.43
2023-03-08T13:01:36.471Z,9.82
2023-03-08T13:04:05.989Z,9.77
2023-03-08T13:07:01.537Z,10.52
2023-03-08T13:09:32.460Z,8.27
2023-03-08T13:12:13.186Z,9.00
2023-03-08T13:14:43.351Z,5.85
2023-03-08T13:17:44.769Z,5.35
2023-03-08T13:20:18.511Z,4.60
2023-03-08T13:22:58.700Z,2.67
2023-03-08T13:25:49.993Z,3.03
2023-03-08T13:28:21.955Z,2.78
2023-03-08T13:30:52.669Z,4.45
2023-03-08T13:33:24.315Z,2.38
2023-03-08T13:35:56.971Z,1.33
2023-03-08T13:38:27.637Z,2.70
2023-03-08T13:40:57.507Z,1.23
2023-03-08T13:43:28.270Z,1.10
2023-03-08T13:45:58.950Z,4.38
2023-03-08T13:48:31.243Z,2.05
2023-03-08T13:51:00.463Z,1.10
2023-03-08T13:53:31.636Z,1.25
2023-03-08T13:56:02.232Z,2.08
2023-03-08T13:58:35.429Z,1.48
2023-03-08T14:01:10.448Z,1.58
2023-03-08T14:03:39.067Z,3.15
2023-03-08T14:06:18.044Z,0.88
2023-03-08T14:08:47.321Z,2.63
2023-03-08T14:11:18.476Z,1.10
2023-03-08T14:13:51.559Z,3.42
2023-03-08T14:16:29.930Z,1.70
2023-03-08T14:18:58.693Z,4.05
2023-03-08T14:21:28.555Z,1.83
2023-03-08T14:23:57.817Z,1.50
2023-03-08T14:26:32.045Z,2.05
2023-03-08T14:29:14.048Z,1.58
2023-03-08T14:31:55.473Z,3.05
2023-03-08T14:34:25.522Z,1.25
2023-03-08T14:36:58.395Z,4.43
2023-03-08T14:39:28.801Z,2.05
2023-03-08T14:41:57.302Z,2.30
2023-03-08T14:44:29.262Z,1.83
2023-03-08T14:47:09.089Z,1.42
2023-03-08T14:49:36.854Z,1.45
2023-03-08T14:52:08.611Z,1.83
2023-03-08T14:54:38.490Z,1.58
2023-03-08T14:57:18.401Z,4.07
2023-03-08T14:59:48.062Z,0.98
2023-03-08T15:02:17.635Z,3.78
2023-03-08T15:04:46.637Z,1.83
2023-03-08T15:07:20.256Z,2.65
2023-03-08T15:09:48.823Z,3.30
2023-03-08T15:12:17.745Z,1.30
2023-03-08T15:14:47.152Z,1.77
2023-03-08T15:17:16.778Z,1.73
2023-03-08T15:19:44.432Z,1.30
2023-03-08T15:22:14.511Z,1.73
2023-03-08T15:24:42.188Z,2.35
2023-03-08T15:27:14.455Z,1.17
2023-03-08T15:29:43.344Z,1.52
2023-03-08T15:32:12.524Z,3.47
2023-03-08T15:34:43.687Z,2.38
2023-03-08T15:37:15.286Z,2.03
2023-03-08T15:39:42.955Z,1.33
2023-03-08T15:42:10.650Z,1.50
2023-03-08T15:47:29.254Z,1.80
2023-03-08T15:49:56.999Z,2.55
2023-03-08T15:52:30.121Z,3.97
2023-03-08T15:54:58.365Z,8.02
2023-03-08T15:57:29.061Z,4.25
2023-03-08T15:59:56.679Z,3.17
2023-03-08T16:02:24.469Z,1.70
2023-03-08T16:04:55.813Z,2.17
2023-03-08T16:07:23.565Z,3.40
2023-03-08T16:09:51.303Z,1.27
2023-03-08T16:12:19.051Z,2.40
2023-03-08T16:14:49.087Z,2.25
2023-03-08T16:17:17.677Z,2.05
2023-03-08T16:19:45.500Z,1.70
2023-03-08T16:22:14.601Z,1.95
2023-03-08T16:24:42.310Z,3.03
2023-03-08T16:27:09.974Z,2.10
2023-03-08T16:29:37.883Z,3.47
2023-03-08T16:32:06.125Z,1.92
2023-03-08T16:34:33.961Z,3.08
2023-03-08T16:37:01.669Z,1.48
2023-03-08T16:39:30.733Z,1.45
2023-03-08T16:41:58.545Z,2.97
2023-03-08T16:44:28.318Z,1.50
2023-03-08T16:46:56.294Z,1.80
2023-03-08T16:49:28.210Z,1.63
2023-03-08T16:51:56.273Z,2.25
2023-03-08T16:54:24.293Z,4.05
2023-03-08T16:56:53.329Z,1.80
2023-03-08T16:59:21.035Z,1.65
2023-03-08T17:01:49.910Z,3.03
2023-03-08T17:04:19.385Z,4.85
2023-03-08T17:06:47.628Z,2.20
2023-03-08T17:09:15.393Z,1.63
2023-03-08T17:11:48.337Z,3.03
2023-03-08T17:14:17.628Z,2.10
2023-03-08T17:16:45.281Z,1.73
2023-03-08T17:19:14.264Z,2.28
2023-03-08T17:21:41.969Z,3.35
2023-03-08T17:24:12.794Z,3.20
2023-03-08T17:26:43.161Z,1.95
2023-03-08T17:29:11.099Z,1.67
2023-03-08T17:31:42.173Z,3.60
2023-03-08T17:34:10.134Z,2.17
2023-03-08T17:36:38.545Z,2.55
2023-03-08T17:39:06.270Z,2.30
2023-03-08T17:41:34.308Z,4.75
2023-03-08T17:44:01.993Z,2.65
2023-03-08T17:46:30.204Z,1.80
2023-03-08T17:48:59.276Z,2.08
2023-03-08T17:51:29.218Z,2.83
2023-03-08T17:53:58.182Z,2.28
2023-03-08T17:56:29.188Z,5.13
2023-03-08T17:58:58.265Z,4.85
2023-03-08T18:01:28.299Z,3.35
2023-03-08T18:03:57.651Z,4.40
2023-03-08T18:06:29.689Z,3.17
2023-03-08T18:08:57.920Z,3.38
2023-03-08T18:11:26.048Z,2.53
2023-03-08T18:13:54.084Z,3.83
2023-03-08T18:16:23.892Z,5.15
2023-03-08T18:18:51.821Z,2.08
2023-03-08T18:21:20.898Z,2.22
2023-03-08T18:23:50.660Z,2.97
2023-03-08T18:26:19.419Z,3.22
2023-03-08T18:28:47.546Z,2.22
2023-03-08T18:31:17.348Z,3.15
2023-03-08T18:33:46.133Z,2.33
2023-03-08T18:36:14.072Z,2.05
2023-03-08T18:38:42.841Z,2.00
2023-03-08T18:41:17.509Z,1.75
2023-03-08T18:43:46.769Z,2.90
2023-03-08T18:46:15.391Z,1.90
2023-03-08T18:48:46.297Z,3.08
2023-03-08T18:51:16.236Z,1.35
2023-03-08T18:53:44.273Z,1.10
2023-03-08T18:56:11.913Z,3.15
2023-03-08T18:58:41.325Z,1.20
2023-03-08T19:01:12.324Z,1.42
2023-03-08T19:03:40.125Z,1.13
2023-03-08T19:06:08.331Z,2.20
2023-03-08T19:08:36.304Z,1.13
2023-03-08T19:11:13.455Z,1.83
2023-03-08T19:13:43.429Z,0.90
2023-03-08T19:16:22.995Z,2.53
2023-03-08T19:18:53.296Z,2.33
2023-03-08T19:21:23.157Z,1.92
2023-03-08T19:23:51.170Z,2.78
2023-03-08T19:26:40.538Z,1.02
2023-03-08T19:29:12.352Z,2.33
2023-03-08T19:31:42.839Z,1.65
2023-03-08T19:34:11.567Z,1.30
2023-03-08T19:36:39.268Z,1.63
2023-03-08T19:39:08.903Z,2.80
2023-03-08T19:41:36.673Z,1.33
2023-03-08T19:44:06.990Z,2.20
2023-03-08T19:46:37.583Z,0.88
2023-03-08T19:49:13.599Z,1.00
2023-03-08T19:51:41.280Z,1.20
2023-03-08T19:54:09.538Z,0.77
2023-03-08T19:56:37.464Z,1.13
2023-03-08T19:59:07.637Z,1.75
2023-03-08T20:01:37.190Z,1.63
2023-03-08T20:04:05.836Z,1.10
2023-03-08T20:06:35.458Z,1.42
2023-03-08T20:09:04.884Z,1.63
2023-03-08T20:11:32.835Z,1.20
2023-03-08T20:14:00.866Z,1.35
2023-03-08T20:16:29.781Z,1.40
2023-03-08T20:18:59.277Z,1.27
2023-03-08T20:21:29.830Z,1.02
2023-03-08T20:23:59.497Z,1.52
2023-03-08T20:26:29.109Z,1.70
2023-03-08T20:28:57.587Z,1.33
2023-03-08T20:31:26.600Z,1.83
2023-03-08T20:33:55.680Z,2.30
2023-03-08T20:36:24.755Z,1.35
2023-03-08T20:38:52.900Z,0.88
2023-03-08T20:41:22.468Z,1.17
2023-03-08T20:43:52.277Z,1.80
2023-03-08T20:46:23.516Z,1.25
2023-03-08T20:48:52.181Z,1.58
2023-03-08T20:51:22.228Z,1.38
2023-03-08T20:53:55.501Z,1.48
2023-03-08T20:56:25.291Z,1.17
2023-03-08T20:58:54.517Z,3.70
2023-03-08T21:01:25.568Z,2.33
2023-03-08T21:03:53.354Z,1.33
2023-03-08T21:06:23.521Z,3.95
2023-03-08T21:08:55.552Z,1.13
2023-03-08T21:11:23.744Z,1.60
2023-03-08T21:13:52.767Z,1.10
2023-03-08T21:16:23.490Z,1.40
2023-03-08T21:18:51.763Z,2.85
2023-03-08T21:21:21.690Z,1.38
2023-03-08T21:23:50.192Z,2.15
2023-03-08T21:26:20.721Z,1.33
2023-03-08T21:28:48.823Z,2.08
2023-03-08T21:31:17.374Z,1.52
2023-03-08T21:33:45.084Z,3.38
2023-03-08T21:36:13.300Z,1.30
2023-03-08T21:38:41.132Z,2.53
2023-03-08T21:41:17.524Z,1.65
2023-03-08T21:43:46.626Z,2.90
2023-03-08T21:46:14.497Z,1.50
2023-03-08T21:48:42.311Z,1.48
2023-03-08T21:51:13.364Z,2.83
2023-03-08T21:53:41.618Z,4.65
2023-03-08T21:56:10.857Z,1.90
2023-03-08T21:58:39.279Z,2.17
2023-03-08T22:01:08.804Z,2.85
2023-03-08T22:03:38.085Z,2.15
2023-03-08T22:06:08.733Z,1.52
2023-03-08T22:08:36.409Z,2.30
2023-03-08T22:11:05.946Z,3.67
2023-03-08T22:13:37.165Z,1.95
2023-03-08T22:16:05.379Z,2.13
2023-03-08T22:18:34.512Z,2.30
2023-03-08T22:21:02.693Z,1.90
2023-03-08T22:23:31.954Z,2.33
2023-03-08T22:26:02.637Z,2.58
2023-03-08T22:28:30.452Z,1.90
2023-03-08T22:30:58.113Z,2.17
2023-03-08T22:33:25.773Z,3.28
2023-03-08T22:35:54.922Z,3.65
2023-03-08T22:38:22.619Z,2.33
2023-03-08T22:40:50.326Z,1.70
2023-03-08T22:43:18.067Z,3.97
2023-03-08T22:45:45.772Z,2.38
2023-03-08T22:48:13.398Z,2.17
2023-03-08T22:50:41.144Z,3.63
2023-03-08T22:53:10.160Z,3.30
2023-03-08T23:02:49.909Z,4.20
2023-03-08T23:05:19.821Z,2.28
2023-03-08T23:07:48.009Z,3.13
2023-03-08T23:10:17.746Z,2.25
2023-03-08T23:12:45.401Z,2.38
2023-03-08T23:15:13.365Z,3.88
2023-03-08T23:17:44.805Z,2.15
2023-03-08T23:20:13.485Z,3.00
2023-03-08T23:22:43.310Z,2.58
2023-03-08T23:25:12.649Z,4.65
2023-03-08T23:27:40.459Z,2.30
2023-03-08T23:30:09.412Z,2.85
2023-03-08T23:32:37.174Z,2.83
2023-03-08T23:35:07.211Z,2.80
2023-03-08T23:37:34.896Z,2.97
2023-03-08T23:40:04.208Z,3.15
2023-03-08T23:42:34.550Z,2.15
2023-03-08T23:45:02.180Z,3.08
2023-03-08T23:47:32.982Z,4.25
2023-03-08T23:50:00.703Z,1.90
2023-03-08T23:52:29.754Z,3.40
2023-03-08T23:55:00.119Z,3.33
2023-03-08T23:57:27.864Z,1.88
2023-03-08T23:59:55.540Z,2.72
